Información del aeropuerto LESA

Información de pista
Pista 03 Longitud 8202 ft Anchura 197 ft
Elevación 2595 ft Umbral 0 ft Rumbo 28
Pista 21 Longitud 8202 ft Anchura 197 ft
Elevación 2586 ft Umbral 0 ft Rumbo 208
Pista 08 Longitud 6594 ft Anchura 400 ft
Elevación 2587 ft Umbral 0 ft Rumbo 74
Pista 26 Longitud 6594 ft Anchura 400 ft
Elevación 2588 ft Umbral 0 ft Rumbo 254
Frecuencias del aeropuerto
Tipo APP Nombre APP Frecuencia 124.4 MHZ
Tipo GND Nombre GND Frecuencia 121.85 MHZ
Tipo TWR Nombre TWR Frecuencia 139.3 MHZ
Radioayudas del aeropuerto
Tipo VOR-DME Nombre Salamanca Frecuencia 112200 KHZ
Tipo NDB Nombre Salamanca Frecuencia 399 KHZ
Tipo NDB Nombre Salamanca Frecuencia 423 KHZ
Tipo TACAN Nombre Salamanca Frecuencia 113300 KHZ
Información meteorológica del aeropuerto y NOTAM
ADDS - METARS form results

(1518 UTC 24 November 2020)
Data provider http://aviationweather.gov/metar/data/
 
METAR text: LESA 241500Z 20004KT 9999 FEW038 13/04 Q1019
Conditions at: LESA (SALAMANCA (CIV/M, ES) observed 1500 UTC 24 November 2020
Temperature: 13.0°C (55°F)
Dewpoint: 4.0°C (39°F) [RH = 54%]
Pressure (altimeter): 30.09 inches Hg (1019.0 mb)
Winds: from the SSW (200 degrees) at 5 MPH (4 knots; 2.1 m/s)
Visibility: 6 or more miles (10+ km)
Ceiling: at least 12,000 feet AGL
Clouds: few clouds at 3800 feet AGL
Weather: no significant weather observed at this time

METAR text: LESA 241430Z VRB02KT 9999 FEW038 13/04 Q1020
Conditions at: LESA (SALAMANCA (CIV/M, ES) observed 1430 UTC 24 November 2020
Temperature: 13.0°C (55°F)
Dewpoint: 4.0°C (39°F) [RH = 54%]
Pressure (altimeter): 30.12 inches Hg (1020.0 mb)
Winds: variable direction winds at 2 MPH (2 knots; 1.0 m/s)
Visibility: 6 or more miles (10+ km)
Ceiling: at least 12,000 feet AGL
Clouds: few clouds at 3800 feet AGL
Weather: no significant weather observed at this time

Forecast for: LESA (SALAMANCA (CIV/M, ES)
Text: TAF LESA 241400Z 2415/2515 22008KT CAVOK TX14/2415Z TN01/2504Z
Forecast period: 1500 UTC 24 November 2020 to 1500 UTC 25 November 2020
Forecast type: FROM: standard forecast or significant change
Winds: from the SW (220 degrees) at 9 MPH (8 knots; 4.1 m/s)
Visibility: 6 or more miles (10+ km)
Ceiling: unknown
Clouds: missing
Weather: no significant weather forecast for this period